首页
METAR-TAF:

METAR-TAF

机场 :

Wood County Airport

Mineola / Quitman, 得克萨斯州, 美国

纬度: 32-44-31N, 经度: 095-29-47W, 海拔: 132米

当前天气观测

该预报发布于43分钟前的18:35 UTC
风速3节,风向
温度 31°C
湿度 59%
气压 1022 hPa
能見度: 16.1公里
散云层高于4100英尺
散云层高于4700英尺

METAR: KJDD 201835Z AUTO 10003KT 10SM SCT041 SCT047 31/22 A3018 RMK AO2

时间: 14:18 (19:18 UTC)


TAF: 丢失

超过4000个机场的气象观测和天气预报(METAR&TAF报告)。

可查询的气象台以黄色和红色小点在地图上表示。

将鼠标移到小点上方,可查看气象台名称。

然后点击查看天气观测和预报。

如需切换地图:点击带黑十字的绿色按钮放大地图;点击带横线的绿色按钮缩小地图;或者点击绿色箭头查看邻近地区的地图。


METAR-TAF: